Grand Canyon National Park, AZ

21:38 MST le 06 juillet 2015 (GMT -0700)
KAZGRAND3 | | Change Station
CLOSE
Current Station
Stations météorologiques personnelles
Location: Grand Canyon, AZ
Altitude: 6991 ft
Stations météo à proximité

Alt. 6991 ft 36.05 °N, 112.12 °W | Updated 2 seconds ago

Partiellement nuageux
Partiellement nuageux
57.1 ° F
Paraît 57.1 ° F
N
0.0
Vent Variable Vent de NNO
Gusts 0.0 mph

Aujourd'hui
Haut(e) -- | Bas -- ° F
--% Risque de précip.
Hier
Haut(e) -- | Bas -- ° F
Precip. -- pouce
5:17 AM 7:48 PM
Lune gibbeuse décroissante, 69% visible
Pression 30.01 pouce
Visibilité 10.0 Miles terrestres
Nuages Ciel dégagé
Point de rosée 50 ° F
Humidité 77%
Précipitations pouce
Profondeur de la couche neigeuse Non disponible.
UV 0 sur 12
Pollen 2.20 sur 12
Qualité de l'air Non disponible.
Flu Activity Non disponible.
METAR KGCN 070354Z AUTO 00000KT 10SM CLR 14/09 A3027 RMK AO2 SLP161 T01390089

More Conditions Fewer Conditions

Pression 30.01 pouce
Visibilité 10.0 Miles terrestres
Nuages Ciel dégagé
Point de rosée 50 ° F
Humidité 77%
Précipitations pouce
Profondeur de la couche neigeuse Non disponible.
UV 0 sur 12
Pollen 2.20 sur 12
Qualité de l'air Non disponible.
Flu Activity Non disponible.
METAR KGCN 070354Z AUTO 00000KT 10SM CLR 14/09 A3027 RMK AO2 SLP161 T01390089

More Conditions Fewer Conditions

10-Day Weather Forecast

×

Almanac

Astronomie

Jul. 06, 2015 Lever Coucher
Temps réel
Crépuscule civil
Crépuscule nautique
Crépuscule astronomique
Lune
Durée de lumière visible
Longueur du jour
Tomorrow will be .
, % of the Moon is Illuminated

Extrêmes aujourd'hui

State Highs State Lows

Community

WunderPhotos

Upload Photos

1,835,725 Photos téléchargées !

WunderBlogs® & News

Nearby

Qualité de l'air

  Qualité de l'air Indice de la qualité de l'air Polluant
Not available.

Épaisseur de neige

Station Depth Altitude

Activité sismique

Ville Distance Mag. Time & Date
Minimum magnitude displayed is 2.5.

Températures des eaux côtières

Lieu Température

Stations

Stations météo à proximité

Emplacement de la station Température Refroidissement éolien Point de rosée Humidité Vent Precip. Alt. Mise à jour Type